sensor_id;sensor_type;location;lat;lon;timestamp;pressure;altitude;pressure_sealevel;temperature
50206;BMP280;36098;48.390;10.856;2024-03-06T00:01:50;95946.25;;;17.23
50206;BMP280;36098;48.390;10.856;2024-03-06T00:04:15;95939.44;;;17.22
50206;BMP280;36098;48.390;10.856;2024-03-06T00:06:42;95946.50;;;17.22
50206;BMP280;36098;48.390;10.856;2024-03-06T00:09:07;95938.88;;;17.20
50206;BMP280;36098;48.390;10.856;2024-03-06T00:11:33;95941.28;;;17.22
50206;BMP280;36098;48.390;10.856;2024-03-06T00:14:01;95946.16;;;17.18
50206;BMP280;36098;48.390;10.856;2024-03-06T00:16:26;95956.13;;;17.21
50206;BMP280;36098;48.390;10.856;2024-03-06T00:18:52;95952.97;;;17.19
50206;BMP280;36098;48.390;10.856;2024-03-06T00:21:17;95956.59;;;17.18
50206;BMP280;36098;48.390;10.856;2024-03-06T00:23:43;95957.41;;;17.19
50206;BMP280;36098;48.390;10.856;2024-03-06T00:26:08;95954.53;;;17.20
50206;BMP280;36098;48.390;10.856;2024-03-06T00:28:35;95960.78;;;17.19
50206;BMP280;36098;48.390;10.856;2024-03-06T00:31:00;95962.38;;;17.20
50206;BMP280;36098;48.390;10.856;2024-03-06T00:33:25;95961.59;;;17.20
50206;BMP280;36098;48.390;10.856;2024-03-06T00:35:50;95964.97;;;17.20
50206;BMP280;36098;48.390;10.856;2024-03-06T00:38:16;95956.59;;;17.18
50206;BMP280;36098;48.390;10.856;2024-03-06T00:40:41;95955.00;;;17.17
50206;BMP280;36098;48.390;10.856;2024-03-06T00:43:07;95958.41;;;17.18
50206;BMP280;36098;48.390;10.856;2024-03-06T00:45:32;95959.44;;;17.17
50206;BMP280;36098;48.390;10.856;2024-03-06T00:47:57;95962.84;;;17.17
50206;BMP280;36098;48.390;10.856;2024-03-06T00:50:23;95960.22;;;17.17
50206;BMP280;36098;48.390;10.856;2024-03-06T00:52:48;95957.84;;;17.16
50206;BMP280;36098;48.390;10.856;2024-03-06T00:55:15;95964.66;;;17.17
50206;BMP280;36098;48.390;10.856;2024-03-06T00:57:40;95957.06;;;17.15
50206;BMP280;36098;48.390;10.856;2024-03-06T01:00:06;95968.06;;;17.17
50206;BMP280;36098;48.390;10.856;2024-03-06T01:02:38;95951.84;;;17.15
50206;BMP280;36098;48.390;10.856;2024-03-06T01:05:04;95957.06;;;17.15
50206;BMP280;36098;48.390;10.856;2024-03-06T01:07:30;95950.28;;;17.14
50206;BMP280;36098;48.390;10.856;2024-03-06T01:09:56;95959.69;;;17.15
50206;BMP280;36098;48.390;10.856;2024-03-06T01:12:23;95951.28;;;17.13
50206;BMP280;36098;48.390;10.856;2024-03-06T01:14:48;95957.28;;;17.14
50206;BMP280;36098;48.390;10.856;2024-03-06T01:17:13;95964.34;;;17.13
50206;BMP280;36098;48.390;10.856;2024-03-06T01:19:39;95957.53;;;17.12
50206;BMP280;36098;48.390;10.856;2024-03-06T01:22:04;95955.97;;;17.11
50206;BMP280;36098;48.390;10.856;2024-03-06T01:24:29;95953.91;;;17.13
50206;BMP280;36098;48.390;10.856;2024-03-06T01:26:55;95958.00;;;17.09
50206;BMP280;36098;48.390;10.856;2024-03-06T01:29:20;95950.75;;;17.11
50206;BMP280;36098;48.390;10.856;2024-03-06T01:31:45;95958.31;;;17.13
50206;BMP280;36098;48.390;10.856;2024-03-06T01:34:12;95949.94;;;17.11
50206;BMP280;36098;48.390;10.856;2024-03-06T01:36:37;95949.94;;;17.11
50206;BMP280;36098;48.390;10.856;2024-03-06T01:39:02;95953.56;;;17.10
50206;BMP280;36098;48.390;10.856;2024-03-06T01:41:28;95957.53;;;17.12
50206;BMP280;36098;48.390;10.856;2024-03-06T01:43:53;95950.41;;;17.08
50206;BMP280;36098;48.390;10.856;2024-03-06T01:46:19;95951.19;;;17.08
50206;BMP280;36098;48.390;10.856;2024-03-06T01:48:44;95957.22;;;17.09
50206;BMP280;36098;48.390;10.856;2024-03-06T01:51:10;95951.19;;;17.08
50206;BMP280;36098;48.390;10.856;2024-03-06T01:53:35;95948.56;;;17.08
50206;BMP280;36098;48.390;10.856;2024-03-06T01:56:03;95951.19;;;17.08
50206;BMP280;36098;48.390;10.856;2024-03-06T01:58:29;95958.00;;;17.09
50206;BMP280;36098;48.390;10.856;2024-03-06T02:00:56;95954.81;;;17.07
50206;BMP280;36098;48.390;10.856;2024-03-06T02:03:22;95954.03;;;17.07
50206;BMP280;36098;48.390;10.856;2024-03-06T02:05:50;95954.81;;;17.07
50206;BMP280;36098;48.390;10.856;2024-03-06T02:08:15;95950.06;;;17.04
50206;BMP280;36098;48.390;10.856;2024-03-06T02:10:41;95949.03;;;17.05
50206;BMP280;36098;48.390;10.856;2024-03-06T02:13:06;95950.88;;;17.05
50206;BMP280;36098;48.390;10.856;2024-03-06T02:15:32;95953.25;;;17.06
50206;BMP280;36098;48.390;10.856;2024-03-06T02:17:57;95946.44;;;17.05
50206;BMP280;36098;48.390;10.856;2024-03-06T02:20:24;95948.03;;;17.06
50206;BMP280;36098;48.390;10.856;2024-03-06T02:22:49;95951.66;;;17.05
50206;BMP280;36098;48.390;10.856;2024-03-06T02:25:15;95939.63;;;17.04
50206;BMP280;36098;48.390;10.856;2024-03-06T02:27:41;95937.03;;;17.04
50206;BMP280;36098;48.390;10.856;2024-03-06T02:30:06;95940.66;;;17.03
50206;BMP280;36098;48.390;10.856;2024-03-06T02:32:32;95939.88;;;17.03
50206;BMP280;36098;48.390;10.856;2024-03-06T02:34:57;95926.28;;;17.01
50206;BMP280;36098;48.390;10.856;2024-03-06T02:37:23;95934.66;;;17.03
50206;BMP280;36098;48.390;10.856;2024-03-06T02:39:49;95940.66;;;17.03
50206;BMP280;36098;48.390;10.856;2024-03-06T02:42:15;95926.03;;;17.02
50206;BMP280;36098;48.390;10.856;2024-03-06T02:44:40;95926.50;;;16.99
50206;BMP280;36098;48.390;10.856;2024-03-06T02:47:05;95924.47;;;17.01
50206;BMP280;36098;48.390;10.856;2024-03-06T02:49:30;95925.47;;;17.00
50206;BMP280;36098;48.390;10.856;2024-03-06T02:51:55;95930.69;;;17.00
50206;BMP280;36098;48.390;10.856;2024-03-06T02:54:21;95928.91;;;17.01
50206;BMP280;36098;48.390;10.856;2024-03-06T02:56:47;95924.72;;;17.00
50206;BMP280;36098;48.390;10.856;2024-03-06T02:59:12;95923.91;;;16.99
50206;BMP280;36098;48.390;10.856;2024-03-06T03:01:38;95915.31;;;16.99
50206;BMP280;36098;48.390;10.856;2024-03-06T03:04:04;95918.13;;;16.97
50206;BMP280;36098;48.390;10.856;2024-03-06T03:06:29;95918.13;;;16.97
50206;BMP280;36098;48.390;10.856;2024-03-06T03:08:54;95930.16;;;16.98
50206;BMP280;36098;48.390;10.856;2024-03-06T03:11:21;95922.53;;;16.97
50206;BMP280;36098;48.390;10.856;2024-03-06T03:13:46;95924.38;;;16.96
50206;BMP280;36098;48.390;10.856;2024-03-06T03:16:18;95924.13;;;16.98
50206;BMP280;36098;48.390;10.856;2024-03-06T03:18:45;95932.19;;;16.96
50206;BMP280;36098;48.390;10.856;2024-03-06T03:21:10;95921.22;;;16.94
50206;BMP280;36098;48.390;10.856;2024-03-06T03:23:37;95924.38;;;16.96
50206;BMP280;36098;48.390;10.856;2024-03-06T03:26:02;95928.22;;;16.94
50206;BMP280;36098;48.390;10.856;2024-03-06T03:28:29;95934.81;;;16.96
50206;BMP280;36098;48.390;10.856;2024-03-06T03:30:55;95923.81;;;16.94
50206;BMP280;36098;48.390;10.856;2024-03-06T03:33:21;95932.97;;;16.97
50206;BMP280;36098;48.390;10.856;2024-03-06T03:35:47;95929.03;;;16.94
50206;BMP280;36098;48.390;10.856;2024-03-06T03:38:12;95931.09;;;16.92
50206;BMP280;36098;48.390;10.856;2024-03-06T03:40:37;95933.44;;;16.94
50206;BMP280;36098;48.390;10.856;2024-03-06T03:43:03;95929.50;;;16.91
50206;BMP280;36098;48.390;10.856;2024-03-06T03:45:35;95932.66;;;16.93
50206;BMP280;36098;48.390;10.856;2024-03-06T03:48:04;95936.31;;;16.92
50206;BMP280;36098;48.390;10.856;2024-03-06T03:50:31;95937.09;;;16.93
50206;BMP280;36098;48.390;10.856;2024-03-06T03:52:57;95943.09;;;16.93
50206;BMP280;36098;48.390;10.856;2024-03-06T03:55:29;95943.09;;;16.93
50206;BMP280;36098;48.390;10.856;2024-03-06T03:57:54;95942.56;;;16.91
50206;BMP280;36098;48.390;10.856;2024-03-06T04:00:19;95941.53;;;16.92
50206;BMP280;36098;48.390;10.856;2024-03-06T04:02:45;95929.94;;;16.88
50206;BMP280;36098;48.390;10.856;2024-03-06T04:05:10;95939.13;;;16.91
50206;BMP280;36098;48.390;10.856;2024-03-06T04:07:36;95943.56;;;16.90
50206;BMP280;36098;48.390;10.856;2024-03-06T04:10:02;95933.91;;;16.91
50206;BMP280;36098;48.390;10.856;2024-03-06T04:12:27;95926.78;;;16.86
50206;BMP280;36098;48.390;10.856;2024-03-06T04:14:53;95938.81;;;16.87
50206;BMP280;36098;48.390;10.856;2024-03-06T04:17:18;95938.34;;;16.90
50206;BMP280;36098;48.390;10.856;2024-03-06T04:19:44;95937.22;;;16.86
50206;BMP280;36098;48.390;10.856;2024-03-06T04:22:10;95945.59;;;16.88
50206;BMP280;36098;48.390;10.856;2024-03-06T04:24:35;95943.25;;;16.87
50206;BMP280;36098;48.390;10.856;2024-03-06T04:27:00;95949.00;;;16.89
50206;BMP280;36098;48.390;10.856;2024-03-06T04:29:25;95952.09;;;16.86
50206;BMP280;36098;48.390;10.856;2024-03-06T04:31:51;95946.06;;;16.85
50206;BMP280;36098;48.390;10.856;2024-03-06T04:34:16;95949.69;;;16.84
50206;BMP280;36098;48.390;10.856;2024-03-06T04:36:41;95954.69;;;16.86
50206;BMP280;36098;48.390;10.856;2024-03-06T04:39:06;95938.72;;;16.82
50206;BMP280;36098;48.390;10.856;2024-03-06T04:41:33;95948.47;;;16.87
50206;BMP280;36098;48.390;10.856;2024-03-06T04:43:58;95953.91;;;16.85
50206;BMP280;36098;48.390;10.856;2024-03-06T04:46:26;95957.06;;;16.87
50206;BMP280;36098;48.390;10.856;2024-03-06T04:48:51;95946.06;;;16.85
50206;BMP280;36098;48.390;10.856;2024-03-06T04:51:16;95955.72;;;16.85
50206;BMP280;36098;48.390;10.856;2024-03-06T04:53:44;95951.75;;;16.82
50206;BMP280;36098;48.390;10.856;2024-03-06T04:56:10;95963.78;;;16.83
50206;BMP280;36098;48.390;10.856;2024-03-06T04:58:35;95963.78;;;16.83
50206;BMP280;36098;48.390;10.856;2024-03-06T05:01:00;95962.19;;;16.82
50206;BMP280;36098;48.390;10.856;2024-03-06T05:03:26;95965.81;;;16.81
50206;BMP280;36098;48.390;10.856;2024-03-06T05:05:51;95967.41;;;16.82
50206;BMP280;36098;48.390;10.856;2024-03-06T05:08:16;95975.31;;;16.87
50206;BMP280;36098;48.390;10.856;2024-03-06T05:10:41;95979.50;;;16.88
50206;BMP280;36098;48.390;10.856;2024-03-06T05:13:07;95979.50;;;16.88
50206;BMP280;36098;48.390;10.856;2024-03-06T05:15:32;95981.56;;;16.86
50206;BMP280;36098;48.390;10.856;2024-03-06T05:17:57;95981.34;;;16.88
50206;BMP280;36098;48.390;10.856;2024-03-06T05:20:23;95978.94;;;16.86
50206;BMP280;36098;48.390;10.856;2024-03-06T05:22:48;95984.72;;;16.88
50206;BMP280;36098;48.390;10.856;2024-03-06T05:25:14;95983.72;;;16.89
50206;BMP280;36098;48.390;10.856;2024-03-06T05:27:39;95982.13;;;16.88
50206;BMP280;36098;48.390;10.856;2024-03-06T05:30:05;95987.34;;;16.88
50206;BMP280;36098;48.390;10.856;2024-03-06T05:32:31;95991.78;;;16.88
50206;BMP280;36098;48.390;10.856;2024-03-06T05:34:56;95989.38;;;16.86
50206;BMP280;36098;48.390;10.856;2024-03-06T05:37:23;95991.78;;;16.88
50206;BMP280;36098;48.390;10.856;2024-03-06T05:39:48;95989.38;;;16.86
50206;BMP280;36098;48.390;10.856;2024-03-06T05:42:13;95991.22;;;16.86
50206;BMP280;36098;48.390;10.856;2024-03-06T05:44:39;95988.34;;;16.87
50206;BMP280;36098;48.390;10.856;2024-03-06T05:47:04;95998.34;;;16.90
50206;BMP280;36098;48.390;10.856;2024-03-06T05:49:31;96005.16;;;16.91
50206;BMP280;36098;48.390;10.856;2024-03-06T05:51:58;95998.09;;;16.92
50206;BMP280;36098;48.390;10.856;2024-03-06T05:54:23;96000.03;;;16.96
50206;BMP280;36098;48.390;10.856;2024-03-06T05:56:49;96001.59;;;16.97
50206;BMP280;36098;48.390;10.856;2024-03-06T05:59:15;96000.25;;;16.95
50206;BMP280;36098;48.390;10.856;2024-03-06T06:01:40;96008.88;;;16.95
50206;BMP280;36098;48.390;10.856;2024-03-06T06:04:08;96013.16;;;17.01
50206;BMP280;36098;48.390;10.856;2024-03-06T06:06:34;96013.16;;;17.01
50206;BMP280;36098;48.390;10.856;2024-03-06T06:08:59;96018.94;;;17.03
50206;BMP280;36098;48.390;10.856;2024-03-06T06:11:25;96017.91;;;17.04
50206;BMP280;36098;48.390;10.856;2024-03-06T06:13:51;96021.06;;;17.06
50206;BMP280;36098;48.390;10.856;2024-03-06T06:16:17;96021.06;;;17.06
50206;BMP280;36098;48.390;10.856;2024-03-06T06:18:42;96029.47;;;17.08
50206;BMP280;36098;48.390;10.856;2024-03-06T06:21:08;96027.44;;;17.10
50206;BMP280;36098;48.390;10.856;2024-03-06T06:23:34;96036.59;;;17.13
50206;BMP280;36098;48.390;10.856;2024-03-06T06:25:59;96037.88;;;17.10
50206;BMP280;36098;48.390;10.856;2024-03-06T06:28:25;96035.81;;;17.12
50206;BMP280;36098;48.390;10.856;2024-03-06T06:30:50;96042.63;;;17.13
50206;BMP280;36098;48.390;10.856;2024-03-06T06:33:20;96039.00;;;17.14
50206;BMP280;36098;48.390;10.856;2024-03-06T06:35:47;96044.78;;;17.16
50206;BMP280;36098;48.390;10.856;2024-03-06T06:38:12;96047.38;;;17.16
50206;BMP280;36098;48.390;10.856;2024-03-06T06:40:38;96046.56;;;17.16
50206;BMP280;36098;48.390;10.856;2024-03-06T06:43:03;96046.00;;;17.14
50206;BMP280;36098;48.390;10.856;2024-03-06T06:45:28;96043.41;;;17.14
50206;BMP280;36098;48.390;10.856;2024-03-06T06:47:53;96053.38;;;17.17
50206;BMP280;36098;48.390;10.856;2024-03-06T06:50:19;96051.00;;;17.15
50206;BMP280;36098;48.390;10.856;2024-03-06T06:52:48;96051.78;;;17.16
50206;BMP280;36098;48.390;10.856;2024-03-06T06:55:13;96050.00;;;17.16
50206;BMP280;36098;48.390;10.856;2024-03-06T06:57:38;96045.78;;;17.15
50206;BMP280;36098;48.390;10.856;2024-03-06T07:00:05;96050.00;;;17.16
50206;BMP280;36098;48.390;10.856;2024-03-06T07:02:37;96059.41;;;17.17
50206;BMP280;36098;48.390;10.856;2024-03-06T07:05:04;96054.19;;;17.17
50206;BMP280;36098;48.390;10.856;2024-03-06T07:07:29;96059.41;;;17.17
50206;BMP280;36098;48.390;10.856;2024-03-06T07:09:58;96062.00;;;17.17
50206;BMP280;36098;48.390;10.856;2024-03-06T07:12:24;96067.44;;;17.16
50206;BMP280;36098;48.390;10.856;2024-03-06T07:14:49;96071.44;;;17.18
50206;BMP280;36098;48.390;10.856;2024-03-06T07:17:14;96069.84;;;17.17
50206;BMP280;36098;48.390;10.856;2024-03-06T07:19:39;96075.84;;;17.18
50206;BMP280;36098;48.390;10.856;2024-03-06T07:22:05;96077.66;;;17.17
50206;BMP280;36098;48.390;10.856;2024-03-06T07:24:30;96075.84;;;17.18
50206;BMP280;36098;48.390;10.856;2024-03-06T07:26:56;96073.47;;;17.16
50206;BMP280;36098;48.390;10.856;2024-03-06T07:29:21;96076.09;;;17.16
50206;BMP280;36098;48.390;10.856;2024-03-06T07:31:46;96083.91;;;17.16
50206;BMP280;36098;48.390;10.856;2024-03-06T07:34:12;96085.50;;;17.17
50206;BMP280;36098;48.390;10.856;2024-03-06T07:36:38;96087.09;;;17.18
50206;BMP280;36098;48.390;10.856;2024-03-06T07:39:04;96078.69;;;17.16
50206;BMP280;36098;48.390;10.856;2024-03-06T07:41:30;96086.75;;;17.15
50206;BMP280;36098;48.390;10.856;2024-03-06T07:43:55;96081.53;;;17.15
50206;BMP280;36098;48.390;10.856;2024-03-06T07:46:20;96092.75;;;17.15
50206;BMP280;36098;48.390;10.856;2024-03-06T07:48:46;96094.00;;;17.13
50206;BMP280;36098;48.390;10.856;2024-03-06T07:51:11;96085.97;;;17.14
50206;BMP280;36098;48.390;10.856;2024-03-06T07:53:36;96089.34;;;17.15
50206;BMP280;36098;48.390;10.856;2024-03-06T07:56:03;96089.03;;;17.11
50206;BMP280;36098;48.390;10.856;2024-03-06T07:58:28;96094.81;;;17.13
50206;BMP280;36098;48.390;10.856;2024-03-06T08:00:53;96098.22;;;17.14
50206;BMP280;36098;48.390;10.856;2024-03-06T08:03:21;96100.03;;;17.13
50206;BMP280;36098;48.390;10.856;2024-03-06T08:05:50;96101.63;;;17.14
50206;BMP280;36098;48.390;10.856;2024-03-06T08:08:16;96103.66;;;17.12
50206;BMP280;36098;48.390;10.856;2024-03-06T08:10:41;96101.06;;;17.12
50206;BMP280;36098;48.390;10.856;2024-03-06T08:13:06;96103.13;;;17.10
50206;BMP280;36098;48.390;10.856;2024-03-06T08:15:32;96105.72;;;17.10
50206;BMP280;36098;48.390;10.856;2024-03-06T08:17:57;96110.13;;;17.10
50206;BMP280;36098;48.390;10.856;2024-03-06T08:20:22;96116.94;;;17.11
50206;BMP280;36098;48.390;10.856;2024-03-06T08:22:48;96110.13;;;17.10
50206;BMP280;36098;48.390;10.856;2024-03-06T08:25:14;96118.78;;;17.10
50206;BMP280;36098;48.390;10.856;2024-03-06T08:27:41;96115.34;;;17.10
50206;BMP280;36098;48.390;10.856;2024-03-06T08:30:07;96119.78;;;17.09
50206;BMP280;36098;48.390;10.856;2024-03-06T08:32:34;96119.78;;;17.09
50206;BMP280;36098;48.390;10.856;2024-03-06T08:35:13;96127.84;;;17.08
50206;BMP280;36098;48.390;10.856;2024-03-06T08:37:39;96120.00;;;17.08
50206;BMP280;36098;48.390;10.856;2024-03-06T08:40:05;96129.63;;;17.07
50206;BMP280;36098;48.390;10.856;2024-03-06T08:42:33;96127.84;;;17.08
50206;BMP280;36098;48.390;10.856;2024-03-06T08:44:58;96125.44;;;17.06
50206;BMP280;36098;48.390;10.856;2024-03-06T08:47:23;96128.31;;;17.05
50206;BMP280;36098;48.390;10.856;2024-03-06T08:49:49;96132.72;;;17.04
50206;BMP280;36098;48.390;10.856;2024-03-06T08:52:15;96134.31;;;17.05
50206;BMP280;36098;48.390;10.856;2024-03-06T08:54:40;96127.28;;;17.06
50206;BMP280;36098;48.390;10.856;2024-03-06T08:57:07;96142.13;;;17.05
50206;BMP280;36098;48.390;10.856;2024-03-06T08:59:34;96136.91;;;17.05
50206;BMP280;36098;48.390;10.856;2024-03-06T09:02:18;96133.75;;;17.03
50206;BMP280;36098;48.390;10.856;2024-03-06T09:04:45;96148.38;;;17.04
50206;BMP280;36098;48.390;10.856;2024-03-06T09:07:11;96145.19;;;17.02
50206;BMP280;36098;48.390;10.856;2024-03-06T09:09:37;96152.00;;;17.03
50206;BMP280;36098;48.390;10.856;2024-03-06T09:12:04;96150.41;;;17.02
50206;BMP280;36098;48.390;10.856;2024-03-06T09:14:34;96157.22;;;17.03
50206;BMP280;36098;48.390;10.856;2024-03-06T09:17:00;96154.06;;;17.01
50206;BMP280;36098;48.390;10.856;2024-03-06T09:19:26;96159.25;;;17.01
50206;BMP280;36098;48.390;10.856;2024-03-06T09:21:51;96152.25;;;17.02
50206;BMP280;36098;48.390;10.856;2024-03-06T09:24:16;96162.91;;;17.00
50206;BMP280;36098;48.390;10.856;2024-03-06T09:26:43;96156.91;;;17.00
50206;BMP280;36098;48.390;10.856;2024-03-06T09:29:08;96157.94;;;16.99
50206;BMP280;36098;48.390;10.856;2024-03-06T09:31:34;96162.91;;;17.00
50206;BMP280;36098;48.390;10.856;2024-03-06T09:33:59;96161.53;;;16.98
50206;BMP280;36098;48.390;10.856;2024-03-06T09:36:24;96170.16;;;16.98
50206;BMP280;36098;48.390;10.856;2024-03-06T09:38:50;96168.56;;;16.97
50206;BMP280;36098;48.390;10.856;2024-03-06T09:41:17;96168.56;;;16.97
50206;BMP280;36098;48.390;10.856;2024-03-06T09:43:44;96167.78;;;16.97
50206;BMP280;36098;48.390;10.856;2024-03-06T09:46:09;96166.19;;;16.96
50206;BMP280;36098;48.390;10.856;2024-03-06T09:48:35;96177.19;;;16.98
50206;BMP280;36098;48.390;10.856;2024-03-06T09:51:01;96176.41;;;16.97
50206;BMP280;36098;48.390;10.856;2024-03-06T09:53:28;96172.22;;;16.96
50206;BMP280;36098;48.390;10.856;2024-03-06T09:55:55;96172.22;;;16.96
50206;BMP280;36098;48.390;10.856;2024-03-06T09:58:21;96179.78;;;16.98
50206;BMP280;36098;48.390;10.856;2024-03-06T10:00:47;96179.00;;;16.97
50206;BMP280;36098;48.390;10.856;2024-03-06T10:03:13;96185.34;;;17.01
50206;BMP280;36098;48.390;10.856;2024-03-06T10:05:38;96184.78;;;16.99
50206;BMP280;36098;48.390;10.856;2024-03-06T10:08:04;96182.75;;;17.01
50206;BMP280;36098;48.390;10.856;2024-03-06T10:10:30;96186.94;;;17.02
50206;BMP280;36098;48.390;10.856;2024-03-06T10:12:56;96181.72;;;17.02
50206;BMP280;36098;48.390;10.856;2024-03-06T10:15:26;96186.16;;;17.02
50206;BMP280;36098;48.390;10.856;2024-03-06T10:18:10;96189.56;;;17.02
50206;BMP280;36098;48.390;10.856;2024-03-06T10:20:35;96189.56;;;17.02
50206;BMP280;36098;48.390;10.856;2024-03-06T10:23:00;96188.78;;;17.02
50206;BMP280;36098;48.390;10.856;2024-03-06T10:25:26;96181.72;;;17.02
50206;BMP280;36098;48.390;10.856;2024-03-06T10:28:09;96194.00;;;17.02
50206;BMP280;36098;48.390;10.856;2024-03-06T10:30:36;96190.38;;;17.03
50206;BMP280;36098;48.390;10.856;2024-03-06T10:33:05;96186.94;;;17.02
50206;BMP280;36098;48.390;10.856;2024-03-06T10:35:32;96195.78;;;17.01
50206;BMP280;36098;48.390;10.856;2024-03-06T10:38:00;96188.53;;;17.03
50206;BMP280;36098;48.390;10.856;2024-03-06T10:40:26;96187.75;;;17.03
50206;BMP280;36098;48.390;10.856;2024-03-06T10:42:55;96186.94;;;17.02
50206;BMP280;36098;48.390;10.856;2024-03-06T10:45:23;96193.75;;;17.03
50206;BMP280;36098;48.390;10.856;2024-03-06T10:47:55;96197.94;;;17.04
50206;BMP280;36098;48.390;10.856;2024-03-06T10:50:21;96196.59;;;17.02
50206;BMP280;36098;48.390;10.856;2024-03-06T10:52:47;96195.59;;;17.03
50206;BMP280;36098;48.390;10.856;2024-03-06T10:55:15;96198.19;;;17.03
50206;BMP280;36098;48.390;10.856;2024-03-06T10:57:41;96205.22;;;17.02
50206;BMP280;36098;48.390;10.856;2024-03-06T11:00:08;96198.19;;;17.03
50206;BMP280;36098;48.390;10.856;2024-03-06T11:02:33;96195.03;;;17.01
50206;BMP280;36098;48.390;10.856;2024-03-06T11:05:01;96195.59;;;17.03
50206;BMP280;36098;48.390;10.856;2024-03-06T11:07:30;96205.22;;;17.02
50206;BMP280;36098;48.390;10.856;2024-03-06T11:09:58;96206.00;;;17.03
50206;BMP280;36098;48.390;10.856;2024-03-06T11:12:37;96202.59;;;17.02
50206;BMP280;36098;48.390;10.856;2024-03-06T11:17:36;96197.16;;;17.04
50206;BMP280;36098;48.390;10.856;2024-03-06T11:28:38;96201.81;;;17.13
50206;BMP280;36098;48.390;10.856;2024-03-06T11:31:07;96205.19;;;17.14
50206;BMP280;36098;48.390;10.856;2024-03-06T11:33:39;96201.56;;;17.15
50206;BMP280;36098;48.390;10.856;2024-03-06T11:38:46;96202.59;;;17.14
50206;BMP280;36098;48.390;10.856;2024-03-06T11:41:11;96203.97;;;17.16
50206;BMP280;36098;48.390;10.856;2024-03-06T11:43:48;96201.34;;;17.16
50206;BMP280;36098;48.390;10.856;2024-03-06T11:46:15;96198.19;;;17.14
50206;BMP280;36098;48.390;10.856;2024-03-06T11:48:42;96201.09;;;17.18
50206;BMP280;36098;48.390;10.856;2024-03-06T11:51:08;96194.31;;;17.17
50206;BMP280;36098;48.390;10.856;2024-03-06T11:53:34;96202.94;;;17.17
50206;BMP280;36098;48.390;10.856;2024-03-06T11:56:00;96190.09;;;17.16
50206;BMP280;36098;48.390;10.856;2024-03-06T11:58:25;96204.53;;;17.18
50206;BMP280;36098;48.390;10.856;2024-03-06T12:00:52;96202.94;;;17.17
50206;BMP280;36098;48.390;10.856;2024-03-06T12:03:19;96202.94;;;17.17
50206;BMP280;36098;48.390;10.856;2024-03-06T12:05:45;96211.78;;;17.16
50206;BMP280;36098;48.390;10.856;2024-03-06T12:08:11;96206.56;;;17.16
50206;BMP280;36098;48.390;10.856;2024-03-06T12:10:37;96203.97;;;17.16
50206;BMP280;36098;48.390;10.856;2024-03-06T12:13:03;96204.97;;;17.15
50206;BMP280;36098;48.390;10.856;2024-03-06T12:15:29;96197.16;;;17.15
50206;BMP280;36098;48.390;10.856;2024-03-06T12:17:54;96198.19;;;17.14
50206;BMP280;36098;48.390;10.856;2024-03-06T12:20:20;96202.38;;;17.15
50206;BMP280;36098;48.390;10.856;2024-03-06T12:22:49;96195.31;;;17.16
50206;BMP280;36098;48.390;10.856;2024-03-06T12:25:22;96194.53;;;17.15
50206;BMP280;36098;48.390;10.856;2024-03-06T12:27:49;96195.31;;;17.16
50206;BMP280;36098;48.390;10.856;2024-03-06T12:30:18;96197.16;;;17.15
50206;BMP280;36098;48.390;10.856;2024-03-06T12:32:44;96200.53;;;17.16
50206;BMP280;36098;48.390;10.856;2024-03-06T12:35:10;96194.75;;;17.14
50206;BMP280;36098;48.390;10.856;2024-03-06T12:37:35;96202.38;;;17.15
50206;BMP280;36098;48.390;10.856;2024-03-06T12:40:02;96201.56;;;17.15
50206;BMP280;36098;48.390;10.856;2024-03-06T12:42:29;96198.75;;;17.16
50206;BMP280;36098;48.390;10.856;2024-03-06T12:44:55;96191.38;;;17.13
50206;BMP280;36098;48.390;10.856;2024-03-06T12:47:20;96204.75;;;17.17
50206;BMP280;36098;48.390;10.856;2024-03-06T12:49:45;96189.31;;;17.15
50206;BMP280;36098;48.390;10.856;2024-03-06T12:52:11;96194.75;;;17.14
50206;BMP280;36098;48.390;10.856;2024-03-06T12:54:36;96200.78;;;17.14
50206;BMP280;36098;48.390;10.856;2024-03-06T12:57:01;96194.75;;;17.14
50206;BMP280;36098;48.390;10.856;2024-03-06T12:59:28;96195.56;;;17.14
50206;BMP280;36098;48.390;10.856;2024-03-06T13:01:53;96196.59;;;17.13
50206;BMP280;36098;48.390;10.856;2024-03-06T13:04:19;96193.97;;;17.13
50206;BMP280;36098;48.390;10.856;2024-03-06T13:06:44;96191.84;;;17.10
50206;BMP280;36098;48.390;10.856;2024-03-06T13:09:10;96196.59;;;17.13
50206;BMP280;36098;48.390;10.856;2024-03-06T13:11:36;96203.41;;;17.14
50206;BMP280;36098;48.390;10.856;2024-03-06T13:14:01;96199.19;;;17.13
50206;BMP280;36098;48.390;10.856;2024-03-06T13:16:26;96195.31;;;17.16
50206;BMP280;36098;48.390;10.856;2024-03-06T13:18:52;96199.50;;;17.17
50206;BMP280;36098;48.390;10.856;2024-03-06T13:21:20;96202.38;;;17.15
50206;BMP280;36098;48.390;10.856;2024-03-06T13:23:45;96204.75;;;17.17
50206;BMP280;36098;48.390;10.856;2024-03-06T13:26:10;96203.72;;;17.18
50206;BMP280;36098;48.390;10.856;2024-03-06T13:28:38;96204.75;;;17.17
50206;BMP280;36098;48.390;10.856;2024-03-06T13:31:04;96200.31;;;17.17
50206;BMP280;36098;48.390;10.856;2024-03-06T13:33:31;96205.53;;;17.17
50206;BMP280;36098;48.390;10.856;2024-03-06T13:35:57;96203.50;;;17.19
50206;BMP280;36098;48.390;10.856;2024-03-06T13:38:23;96205.53;;;17.17
50206;BMP280;36098;48.390;10.856;2024-03-06T13:40:48;96207.13;;;17.18
50206;BMP280;36098;48.390;10.856;2024-03-06T13:43:13;96202.38;;;17.15
50206;BMP280;36098;48.390;10.856;2024-03-06T13:45:51;96205.53;;;17.17
50206;BMP280;36098;48.390;10.856;2024-03-06T13:48:16;96205.53;;;17.17
50206;BMP280;36098;48.390;10.856;2024-03-06T13:50:45;96210.75;;;17.17
50206;BMP280;36098;48.390;10.856;2024-03-06T13:53:11;96210.75;;;17.17
50206;BMP280;36098;48.390;10.856;2024-03-06T13:55:37;96204.53;;;17.18
50206;BMP280;36098;48.390;10.856;2024-03-06T13:58:02;96208.94;;;17.18
50206;BMP280;36098;48.390;10.856;2024-03-06T14:00:28;96207.94;;;17.19
50206;BMP280;36098;48.390;10.856;2024-03-06T14:02:53;96215.97;;;17.17
50206;BMP280;36098;48.390;10.856;2024-03-06T14:05:19;96212.34;;;17.18